Date,TemperatureHighF,TemperatureAvgF,TemperatureLowF,DewpointHighF,DewpointAvgF,DewpointLowF,HumidityHigh,HumidityAvg,HumidityLow,PressureMaxIn,PressureMinIn,WindSpeedMaxMPH,WindSpeedAvgMPH,GustSpeedMaxMPH,PrecipitationSumIn
2013-1-1,46.7,43.1,38.3,37.7,34.1,29.9,82,71,52,29.95,29.83,8,2,14,0.10
2013-1-2,39.5,35.4,30.6,33.2,28.6,20.7,88,77,66,30.14,29.91,7,2,11,0.14
2013-1-3,36.0,30.2,24.2,23.0,19.8,16.8,75,65,57,30.17,30.08,4,1,11,0.00
2013-1-4,43.6,32.8,24.1,31.8,24.8,18.3,83,72,59,30.16,30.04,6,1,8,0.00
2013-1-5,44.2,36.5,30.4,29.6,26.3,21.2,76,67,54,30.30,30.09,7,2,11,0.00
2013-1-6,49.2,40.7,32.7,38.6,33.2,26.6,81,75,65,30.17,29.97,5,1,8,0.02
2013-1-7,48.8,39.4,28.5,36.3,30.4,21.6,83,71,56,30.39,30.05,7,2,11,0.00
2013-1-8,55.0,40.7,27.3,43.0,33.1,21.9,85,75,63,30.40,30.30,5,0,8,0.00
2013-1-9,65.0,52.3,36.9,53.2,44.5,32.5,87,75,64,30.33,30.18,9,2,15,0.00
2013-1-10,53.9,45.4,36.2,42.3,34.2,27.9,80,65,49,30.49,30.29,7,2,12,0.00
2013-1-11,56.0,44.7,30.7,52.8,40.2,25.6,90,84,78,30.43,30.02,6,2,10,0.05
2013-1-12,52.9,46.5,40.9,50.2,44.3,39.0,93,92,89,30.10,30.02,6,1,11,0.00
2013-1-13,59.2,49.1,42.2,58.1,47.7,40.3,96,95,93,30.08,29.97,6,3,10,0.00
2013-1-14,65.0,58.2,45.8,62.3,56.3,44.4,96,94,91,30.13,29.94,7,4,13,0.60
2013-1-15,45.8,43.0,41.6,44.4,41.8,40.3,96,96,95,30.20,30.02,8,2,13,0.41
2013-1-16,48.0,42.6,38.5,46.9,41.5,37.5,96,96,96,30.02,29.83,8,2,15,0.36
2013-1-17,44.2,40.6,32.5,43.1,39.6,31.5,96,96,95,30.06,29.89,5,2,7,0.77
2013-1-18,38.3,33.4,25.4,34.8,30.3,22.3,96,88,78,30.47,29.96,9,3,12,0.26
2013-1-19,52.5,39.4,25.6,38.3,32.4,22.6,89,77,54,30.43,30.01,7,2,12,0.00
2013-1-20,58.4,48.8,35.8,39.0,34.0,21.7,66,57,46,30.00,29.79,11,6,18,0.00
2013-1-21,46.8,37.8,27.8,38.1,27.5,18.1,76,66,58,30.03,29.69,11,3,18,0.00
2013-1-22,32.9,26.5,18.1,24.5,11.0,2.6,71,52,39,30.21,29.82,10,6,19,0.00
2013-1-23,28.7,21.6,13.5,12.3,7.0,1.2,60,53,45,30.27,30.07,7,2,12,0.00
2013-1-24,26.3,22.5,18.6,15.1,11.2,5.6,78,62,51,30.44,29.94,11,5,17,0.02
2013-1-25,27.2,21.8,12.1,21.2,12.0,2.9,78,66,54,30.43,29.99,7,1,17,0.00
2013-1-26,34.9,26.0,12.6,23.2,17.3,6.9,82,70,59,30.35,29.99,10,3,13,0.34
2013-1-27,36.3,25.4,14.1,23.0,15.1,6.7,74,65,55,30.53,30.35,5,1,10,0.00
2013-1-28,49.8,38.4,23.6,42.5,31.0,15.9,82,75,66,30.45,30.03,9,4,23,0.07
2013-1-29,65.5,52.4,47.1,54.7,46.1,41.8,85,79,67,30.08,29.99,8,3,23,0.00
2013-1-30,66.6,58.2,49.2,61.8,54.0,44.9,91,86,80,30.00,29.39,17,8,25,0.00
2013-1-31,60.5,49.7,36.8,57.6,39.0,21.5,91,68,46,29.86,29.21,19,10,35,0.49
2013-2-1,40.9,32.6,24.2,28.1,16.9,7.9,68,53,41,30.28,29.73,15,7,18,0.00
2013-2-2,34.7,27.5,19.1,20.6,13.1,7.3,63,55,47,30.32,29.94,6,2,14,0.00
2013-2-3,40.1,33.9,26.3,28.3,23.0,17.5,76,64,55,29.93,29.76,7,2,10,0.00
2013-2-4,39.5,32.9,27.5,27.8,19.7,13.9,77,58,49,30.05,29.84,10,4,15,0.00
2013-2-5,48.0,42.7,35.6,35.2,30.5,27.2,76,62,55,29.88,29.76,7,2,12,0.00
2013-2-6,49.8,37.3,27.3,37.3,29.5,21.6,84,74,58,30.28,29.83,7,2,10,0.00
2013-2-7,45.1,36.3,25.0,39.6,29.6,20.0,83,77,66,30.35,30.09,8,2,14,0.04
2013-2-8,48.0,43.1,38.9,45.8,40.4,33.8,93,90,82,30.08,29.50,11,6,18,2.00
2013-2-9,39.1,34.8,31.3,33.5,24.8,21.9,81,67,58,30.29,29.77,13,8,21,0.00
2013-2-10,41.9,33.5,21.9,36.2,23.7,13.0,80,67,58,30.43,30.24,5,2,12,0.00
2013-2-11,60.5,53.3,41.9,57.6,49.5,36.1,92,87,78,30.24,29.70,12,7,19,0.16
2013-2-12,56.9,48.7,37.2,51.1,38.5,31.9,88,69,48,29.92,29.71,12,2,17,0.00
2013-2-13,47.1,44.8,38.9,42.1,38.8,35.0,89,80,67,29.88,29.50,9,3,13,0.16
2013-2-14,47.3,40.1,33.8,41.2,35.0,28.3,90,82,66,30.00,29.64,6,2,8,0.00
2013-2-15,55.9,43.7,32.5,46.4,37.0,28.8,89,78,66,30.00,29.86,7,2,11,0.00
2013-2-16,43.6,36.5,30.3,35.9,32.0,27.2,90,84,74,29.89,29.67,8,5,11,0.18
2013-2-17,32.5,29.9,26.6,27.2,20.1,9.4,88,68,46,30.10,29.67,13,8,17,0.04
2013-2-18,40.2,31.3,25.0,25.4,16.1,10.9,63,53,40,30.31,30.10,11,6,18,0.00
2013-2-19,52.9,45.0,35.0,48.2,37.4,25.4,87,75,64,30.19,29.69,10,6,15,0.12
2013-2-20,42.9,35.8,28.4,38.7,26.7,16.0,86,70,55,30.06,29.76,8,4,12,0.00
2013-2-21,37.9,31.2,25.8,22.1,17.9,14.2,62,58,50,30.21,30.03,11,6,14,0.00
2013-2-22,40.9,35.4,29.5,37.2,26.5,17.3,87,70,57,30.30,30.11,10,3,17,0.11
2013-2-23,52.0,44.7,40.9,50.0,42.4,37.3,93,91,87,30.11,29.70,11,4,17,0.53
2013-2-24,49.9,43.0,34.7,46.6,39.4,26.9,95,87,70,30.00,29.67,10,4,12,0.01
2013-2-25,43.6,35.2,27.0,33.0,27.0,21.6,81,72,63,30.17,30.00,7,3,10,0.00
2013-2-26,56.2,41.4,26.1,53.9,37.4,21.4,93,86,81,30.14,29.48,21,7,29,0.88
2013-2-27,56.9,50.6,40.3,54.9,46.9,35.8,93,87,72,29.62,29.45,11,3,17,0.01
2013-2-28,47.0,41.3,36.6,42.7,35.9,32.7,89,81,74,29.65,29.55,9,2,14,0.00
2013-3-1,45.7,41.3,36.8,36.4,33.4,29.8,81,73,67,29.78,29.64,7,4,12,0.00
2013-3-2,42.2,37.6,34.3,31.7,27.9,23.4,78,68,62,29.79,29.72,7,4,9,0.00
2013-3-3,39.1,34.9,30.7,25.8,23.5,22.0,71,63,56,29.81,29.70,9,5,12,0.00
2013-3-4,41.9,36.1,31.2,25.9,22.6,19.5,63,58,49,29.94,29.81,11,6,17,0.00
2013-3-5,45.1,38.0,31.2,32.7,25.7,20.2,81,61,49,30.01,29.70,10,4,17,0.13
2013-3-6,45.7,39.6,34.4,42.7,36.5,32.0,92,89,81,29.73,29.21,17,12,31,2.15
2013-3-7,46.7,41.3,36.2,35.3,32.7,28.6,91,72,57,30.01,29.74,13,8,21,0.00
2013-3-8,44.6,40.9,36.2,30.8,28.0,24.5,67,60,55,30.10,29.96,14,9,20,0.00
2013-3-9,55.0,42.9,31.0,37.2,28.6,22.4,71,57,46,30.23,30.10,8,4,17,0.00
2013-3-10,51.4,39.5,26.0,41.3,31.9,20.2,85,74,64,30.28,30.21,10,3,14,0.00
2013-3-11,56.7,49.0,38.0,51.3,44.6,34.5,90,85,81,30.22,29.97,10,5,15,0.00
2013-3-12,58.9,52.9,45.7,56.6,49.5,41.8,93,88,82,29.97,29.65,14,7,22,0.54
2013-3-13,52.5,43.8,33.8,41.5,35.2,26.3,87,72,56,29.94,29.82,10,4,20,0.00
2013-3-14,46.0,39.9,34.3,26.8,22.7,20.2,59,50,39,30.05,29.94,12,8,19,0.00
2013-3-15,52.6,44.2,36.6,35.6,26.3,20.9,65,50,31,30.03,29.74,9,4,19,0.00
2013-3-16,55.0,48.8,39.2,50.9,40.3,30.6,87,73,52,29.77,29.55,8,3,17,0.32
2013-3-17,41.5,37.5,33.4,37.6,34.4,30.8,91,89,86,30.19,29.78,5,2,6,0.19
2013-3-18,49.1,39.7,32.8,47.2,37.6,30.5,94,92,91,30.22,29.79,9,3,15,0.62
2013-3-19,55.1,45.8,38.0,48.9,41.3,-99.9,94,87,78,29.83,29.68,8,3,14,0.00
2013-3-20,53.2,43.7,28.7,37.1,30.0,22.1,81,60,36,29.96,29.72,8,4,14,0.00
2013-3-21,42.5,36.3,32.7,31.7,24.8,14.0,77,63,46,29.80,29.60,11,6,15,0.00
2013-3-22,43.9,35.2,30.1,25.5,19.0,13.1,57,51,44,29.90,29.80,10,6,15,0.00
2013-3-23,49.9,37.9,31.3,28.0,23.4,21.0,70,56,42,29.91,29.85,4,0,8,0.00
2013-3-24,41.6,34.8,26.4,29.8,25.8,19.9,82,70,60,29.92,29.54,10,3,20,0.02
2013-3-25,40.1,36.9,34.4,36.8,33.7,29.5,90,88,82,29.61,29.36,7,4,18,0.48
2013-3-26,48.8,40.9,35.9,41.4,35.6,31.3,90,82,71,29.89,29.61,8,4,10,0.01
2013-3-27,51.4,43.8,39.3,37.6,33.5,30.0,79,68,55,30.02,29.88,9,6,13,0.00
2013-3-28,50.7,44.1,39.3,35.8,31.7,29.1,69,62,53,30.12,30.00,10,5,14,0.00
2013-3-29,54.1,44.4,36.0,37.3,32.3,26.2,78,63,47,30.17,30.08,8,3,14,0.00
2013-3-30,59.9,46.2,34.3,42.7,32.8,25.5,83,61,35,30.14,30.06,5,2,10,0.00
2013-3-31,58.0,51.0,44.2,52.5,44.0,33.6,87,77,66,30.09,29.69,10,4,14,0.29
2013-4-1,68.3,54.7,44.8,54.8,45.5,30.0,92,73,48,29.88,29.64,8,3,14,0.00
2013-4-2,52.2,42.2,29.1,31.2,25.7,19.5,71,53,36,30.09,29.88,8,3,17,0.00
2013-4-3,52.3,39.5,25.8,30.0,22.8,15.1,77,53,33,30.28,30.09,8,2,17,0.00
2013-4-4,45.2,37.7,26.4,33.2,23.4,14.4,78,57,46,30.34,30.00,8,2,13,0.09
2013-4-5,57.5,45.8,37.2,47.6,39.2,30.7,90,78,56,30.00,29.73,8,4,12,0.76
2013-4-6,50.8,43.8,36.8,35.8,30.6,26.2,81,60,49,30.27,29.92,11,4,16,0.00
2013-4-7,59.9,49.7,34.9,48.8,41.1,27.9,82,73,65,30.26,29.99,10,4,16,0.00
2013-4-8,75.6,63.8,55.4,58.8,52.8,46.8,78,68,50,30.04,29.96,7,4,15,0.00
2013-4-9,82.8,69.8,62.4,60.9,55.6,51.5,76,62,38,30.03,29.94,6,3,13,0.00
2013-4-10,88.2,74.7,66.1,63.8,58.8,54.8,69,59,36,29.95,29.79,9,3,16,0.00
2013-4-11,82.0,71.4,61.5,63.4,58.7,54.2,81,65,51,29.84,29.75,8,4,15,0.00
2013-4-12,72.5,65.6,58.1,67.7,61.6,53.6,91,87,81,29.75,29.53,10,4,17,0.17
2013-4-13,66.6,55.0,48.3,63.3,47.8,42.5,91,77,67,29.89,29.56,11,5,17,0.00
2013-4-14,68.3,58.2,45.1,53.4,45.4,40.2,89,64,38,30.09,29.88,5,2,14,0.00
2013-4-15,60.4,55.0,52.3,50.8,47.5,43.3,81,76,69,30.22,30.07,12,6,22,0.00
2013-4-16,67.8,59.8,50.1,59.0,53.2,45.8,88,79,71,30.25,30.14,7,4,22,0.00
2013-4-17,75.6,64.5,54.8,64.1,57.3,50.9,88,78,64,30.17,30.08,9,3,15,0.00
2013-4-18,70.9,62.6,55.0,64.6,58.3,51.5,91,86,76,30.19,30.03,7,4,14,0.00
2013-4-19,74.4,66.6,59.6,69.2,62.7,56.6,91,87,81,30.02,29.68,9,5,19,0.41
2013-4-20,66.4,53.6,43.5,63.4,45.5,38.1,92,75,57,30.22,29.71,10,3,19,0.63
2013-4-21,53.3,45.3,38.2,37.9,33.5,29.0,82,64,49,30.51,30.23,10,3,18,0.00
2013-4-22,54.1,45.4,34.3,45.6,38.9,28.1,85,78,70,30.49,30.25,7,3,18,0.00
2013-4-23,55.1,49.3,41.6,48.6,44.8,37.4,89,84,77,30.24,30.05,5,3,11,0.00
2013-4-24,63.9,54.2,40.2,58.2,49.8,36.3,90,85,79,30.08,29.85,6,2,11,0.00
2013-4-25,64.5,55.3,41.6,58.9,45.2,35.6,85,69,53,30.23,29.89,9,3,16,0.00
2013-4-26,65.3,51.6,37.0,51.2,40.7,32.6,90,68,46,30.35,30.21,8,2,10,0.00
2013-4-27,66.8,52.7,39.9,51.7,41.2,34.8,87,67,41,30.34,30.25,8,2,9,0.00
2013-4-28,63.5,53.0,38.0,50.1,41.6,33.3,87,67,45,30.25,30.11,7,2,12,0.00
2013-4-29,57.5,55.6,53.9,54.0,52.4,48.8,93,89,75,30.10,29.97,9,4,21,1.59
2013-4-30,59.5,56.5,54.4,57.8,54.9,52.7,95,94,93,30.13,29.97,6,2,16,0.15
2013-5-1,62.7,56.3,51.6,56.8,52.3,49.5,95,87,70,30.32,30.13,6,2,22,0.00
2013-5-2,65.3,55.0,46.4,57.9,49.9,41.9,93,83,70,30.32,30.24,6,2,16,0.00
2013-5-3,59.2,52.4,44.6,50.8,45.8,39.9,90,79,68,30.28,30.20,9,2,16,0.00
2013-5-4,61.6,51.8,43.9,54.8,46.6,39.7,90,83,72,30.22,30.12,6,2,17,0.00
2013-5-5,60.2,53.1,44.3,52.6,47.6,40.7,89,82,75,30.12,30.05,5,2,21,0.00
2013-5-6,66.9,58.8,52.6,62.6,55.8,48.8,92,90,85,30.07,29.96,7,3,14,0.05
2013-5-7,66.1,61.2,56.0,63.6,58.7,53.7,94,92,88,29.96,29.83,12,6,22,0.44
2013-5-8,69.3,59.5,49.5,62.9,55.6,47.3,94,87,77,29.95,29.88,6,1,22,0.06
2013-5-9,74.2,63.7,57.6,63.7,58.3,54.5,92,83,64,29.95,29.84,3,1,10,0.02
2013-5-10,84.0,69.8,56.7,67.5,59.6,52.9,89,72,48,29.95,29.88,3,0,9,0.00
2013-5-11,80.7,71.4,66.3,67.4,62.5,59.3,85,74,58,29.87,29.68,6,1,9,0.04
2013-5-12,70.4,62.4,47.3,64.6,53.1,36.9,89,73,51,29.95,29.65,7,2,10,0.09
2013-5-13,62.7,52.7,40.3,45.1,36.3,29.1,81,56,35,30.06,29.94,6,2,8,0.00
2013-5-14,62.7,51.7,36.0,45.3,36.1,28.5,80,57,36,30.13,30.02,6,1,8,0.00
2013-5-15,80.7,68.6,56.3,62.6,55.8,45.3,78,65,50,30.04,29.69,9,2,24,0.00
2013-5-16,87.6,78.4,70.4,62.7,59.6,56.0,67,54,35,29.83,29.70,8,3,14,0.00
2013-5-17,78.1,68.3,58.0,60.8,54.7,48.2,81,63,43,30.10,29.84,8,2,10,0.00
2013-5-18,63.4,61.8,59.5,60.0,56.7,51.7,91,83,75,30.17,30.09,8,4,13,0.04
2013-5-19,74.6,66.2,62.0,70.8,63.4,59.6,93,91,86,30.13,30.06,6,2,12,0.01
2013-5-20,79.8,71.0,65.8,72.7,66.8,63.4,93,87,77,30.09,29.96,5,1,8,0.04
2013-5-21,79.9,73.1,68.1,70.7,67.5,64.4,91,83,71,29.98,29.86,5,1,10,0.00
2013-5-22,83.0,74.5,70.3,71.4,67.8,64.7,89,80,64,29.93,29.85,7,3,13,0.00
2013-5-23,73.7,69.9,66.1,69.9,66.7,64.0,93,90,83,29.91,29.71,2,0,10,0.18
2013-5-24,68.8,61.5,53.8,66.3,57.5,43.9,94,87,69,30.00,29.66,7,3,11,0.11
2013-5-25,63.4,56.7,49.8,45.9,42.0,39.4,71,59,45,30.06,30.00,8,5,12,0.01
2013-5-26,69.8,61.3,51.1,43.9,41.1,37.6,70,48,33,30.15,30.05,6,2,11,0.00
2013-5-27,77.0,63.9,48.0,58.9,49.3,41.6,86,61,39,30.19,30.12,5,1,9,0.00
2013-5-28,77.9,69.7,62.4,63.4,58.5,52.2,79,68,57,30.16,30.07,6,1,9,0.00
2013-5-29,86.7,75.7,66.9,68.4,64.5,60.7,83,69,50,30.10,30.06,6,2,15,0.00
2013-5-30,88.4,76.6,69.1,69.4,65.1,62.1,80,69,46,30.16,30.10,6,2,13,0.00
2013-5-31,88.0,76.9,69.6,72.7,67.1,62.4,87,73,53,30.14,30.03,4,1,11,0.00
2013-6-1,87.2,77.7,72.3,72.7,68.1,65.0,84,73,54,30.04,29.94,5,1,9,0.00
2013-6-2,86.3,78.0,71.3,68.0,65.5,62.6,78,66,49,29.94,29.83,6,2,11,0.00
2013-6-3,75.3,70.9,67.3,71.8,66.9,64.5,93,87,75,29.85,29.74,5,0,9,1.65
2013-6-4,72.1,66.9,54.7,67.8,60.3,49.3,94,80,56,30.06,29.84,8,1,10,0.01
2013-6-5,76.3,64.6,52.0,63.5,55.4,48.6,92,74,54,30.11,30.04,5,1,9,0.00
2013-6-6,74.7,66.9,56.7,66.5,61.4,53.1,90,83,73,30.05,29.83,8,3,11,0.00
2013-6-7,76.0,71.2,68.6,73.3,68.4,64.6,94,91,87,29.83,29.42,7,2,14,1.38
2013-6-8,76.8,70.4,63.2,72.0,67.2,60.2,94,90,82,30.03,29.59,7,1,12,0.50
2013-6-9,77.4,69.8,60.5,72.3,65.5,58.2,94,86,78,30.13,30.02,6,2,11,0.00
2013-6-10,79.2,73.4,70.6,74.6,70.5,68.2,93,91,85,30.06,29.82,4,1,6,0.36
2013-6-11,83.0,76.4,71.8,73.4,70.2,67.1,93,82,67,29.82,29.72,7,3,13,0.00
2013-6-12,87.4,78.9,69.9,71.5,68.2,64.8,85,71,53,29.82,29.75,7,1,13,0.00
2013-6-13,91.2,75.9,68.1,77.4,69.5,64.1,89,81,53,29.76,29.43,9,3,14,1.22
2013-6-14,72.5,66.8,60.7,64.1,57.1,53.2,80,71,59,29.88,29.50,7,2,11,0.01
2013-6-15,80.9,71.4,59.5,65.3,60.2,55.2,89,69,49,29.99,29.88,3,0,11,0.00
2013-6-16,84.9,76.3,66.3,69.6,65.6,60.6,85,70,57,29.97,29.86,7,3,16,0.00
2013-6-17,80.9,74.9,71.1,72.6,68.5,65.3,89,81,67,29.93,29.85,5,1,16,0.14
2013-6-18,75.6,71.4,63.7,72.5,68.2,61.6,93,90,83,29.89,29.70,4,0,8,1.13
2013-6-19,72.0,66.4,60.9,68.2,63.3,57.9,94,90,82,30.09,29.76,6,2,11,0.00
2013-6-20,75.6,65.5,55.4,64.7,56.2,51.2,94,74,45,30.22,30.09,8,3,14,0.01
2013-6-21,78.3,67.7,55.7,68.4,60.8,51.4,90,79,68,30.23,30.18,8,3,13,0.00
2013-6-22,80.5,71.0,61.0,70.2,63.4,57.4,91,77,64,30.19,30.12,7,2,11,0.00
2013-6-23,81.6,75.4,67.1,75.0,70.4,61.8,90,85,78,30.14,30.06,5,0,9,0.00
2013-6-24,88.2,80.2,73.5,77.1,72.8,70.3,91,79,63,30.09,29.97,4,2,13,0.00
2013-6-25,88.6,81.0,74.9,77.3,73.0,69.1,89,78,60,30.00,29.86,5,1,9,0.00
2013-6-26,90.3,81.3,74.7,76.9,73.4,70.2,87,78,61,29.88,29.76,5,1,8,0.02
2013-6-27,85.7,78.3,71.8,76.5,71.2,66.6,88,79,63,29.78,29.60,6,1,14,0.72
2013-6-28,87.8,79.6,73.7,77.3,73.1,70.7,92,81,60,29.61,29.46,4,1,11,0.00
2013-6-29,82.6,75.7,72.0,74.3,70.5,66.8,89,84,73,29.67,29.48,3,0,11,0.08
2013-6-30,81.4,76.8,74.4,75.9,72.8,70.1,91,88,81,29.83,29.67,3,0,5,0.01
2013-7-1,79.8,75.5,73.2,76.1,72.5,70.5,92,91,86,30.00,29.83,6,0,8,0.61
2013-7-2,82.2,74.7,69.9,77.2,71.8,67.5,94,91,83,30.17,30.00,7,0,12,0.17
2013-7-3,82.8,77.0,69.9,78.5,73.8,67.8,94,90,82,30.21,30.14,2,0,6,0.05
2013-7-4,84.0,78.3,73.7,77.9,73.5,70.8,93,85,75,30.24,30.17,4,0,9,0.00
2013-7-5,87.6,79.1,71.5,76.4,72.6,68.4,92,81,65,30.21,30.11,3,0,9,0.00
2013-7-6,89.0,81.2,75.1,78.9,73.2,68.7,89,78,55,30.16,30.05,3,1,9,0.00
2013-7-7,88.4,81.4,74.6,77.0,72.6,69.0,87,75,59,30.09,29.96,5,1,12,0.00
2013-7-8,84.0,79.3,74.9,74.5,72.2,69.4,85,79,71,30.07,29.99,4,1,12,0.00
2013-7-9,86.1,78.7,73.2,78.6,73.7,69.4,91,85,76,30.06,29.97,2,0,11,0.05
2013-7-10,88.0,80.3,72.8,79.0,74.7,69.4,90,83,70,30.00,29.85,4,1,11,0.14
2013-7-11,80.9,75.5,72.5,75.6,72.2,70.4,93,89,84,29.88,29.82,5,0,11,0.25
2013-7-12,77.0,73.2,70.4,74.5,71.2,68.6,95,93,91,29.96,29.82,1,0,3,0.69
2013-7-13,83.0,76.0,68.9,78.3,73.1,67.3,95,91,83,30.22,29.96,3,0,7,0.02
2013-7-14,84.5,78.3,73.0,79.2,74.1,69.9,94,87,72,30.27,30.22,4,0,7,0.01
2013-7-15,88.6,78.7,67.6,79.3,72.8,65.2,94,83,66,30.25,30.13,1,0,7,0.00
2013-7-16,91.2,81.4,73.7,83.2,75.1,68.8,90,81,70,30.14,30.09,7,0,8,0.06
2013-7-17,92.1,80.7,70.8,81.6,72.5,67.4,92,77,59,30.12,30.04,6,0,7,0.00
2013-7-18,92.9,82.5,72.3,80.9,73.5,68.5,91,76,52,30.06,29.97,1,0,5,0.00
2013-7-19,92.5,84.6,75.4,80.9,75.0,70.6,88,74,60,29.98,29.85,4,1,9,0.00
2013-7-20,89.9,84.2,79.6,78.6,75.0,72.3,82,74,66,29.88,29.78,7,2,14,0.00
2013-7-21,87.4,81.0,75.1,78.2,74.4,71.5,89,81,70,29.89,29.82,4,0,14,0.09
2013-7-22,85.3,77.8,71.6,79.9,74.0,69.2,93,88,81,29.87,29.74,3,0,7,0.07
2013-7-23,87.0,80.1,74.7,78.6,74.8,70.6,92,84,71,29.73,29.59,4,1,9,0.00
2013-7-24,87.8,78.6,72.3,80.2,72.4,67.0,92,82,67,29.79,29.61,5,0,9,0.00
2013-7-25,74.7,70.2,65.8,70.9,66.6,63.1,91,88,85,29.94,29.76,3,0,7,0.17
2013-7-26,68.3,66.6,65.6,64.3,63.4,62.6,91,90,87,30.02,29.92,0,0,6,0.00
2013-7-27,81.8,72.1,62.9,71.9,65.5,60.4,93,80,62,30.02,29.90,5,0,8,0.01
2013-7-28,82.4,75.7,69.1,77.2,71.0,65.0,90,86,77,29.94,29.85,4,0,8,0.42
2013-7-29,82.2,73.9,63.9,71.4,67.0,58.1,93,80,56,30.08,29.90,1,0,5,0.00
2013-7-30,82.6,71.0,59.0,69.7,61.1,55.7,92,73,51,30.15,30.08,1,0,2,0.00
2013-7-31,79.4,71.0,60.2,71.4,63.4,56.6,91,78,63,30.10,29.98,3,0,6,0.00
2013-8-1,78.8,73.8,71.6,72.5,69.0,65.8,91,85,81,29.98,29.77,2,0,6,0.04
2013-8-2,85.9,77.2,68.9,75.0,70.4,66.5,93,80,60,29.92,29.78,1,0,8,0.00
2013-8-3,85.7,75.3,69.3,75.4,70.0,64.4,91,84,62,29.91,29.84,4,0,12,0.23
2013-8-4,80.3,72.1,62.0,71.5,63.6,55.0,93,76,51,29.94,29.80,3,0,10,0.00
2013-8-5,77.6,68.1,57.8,66.6,58.9,53.3,89,74,56,30.02,29.94,5,1,10,0.00
2013-8-6,69.3,67.8,66.1,66.5,64.2,61.4,92,88,81,30.05,29.96,3,0,8,0.78
2013-8-7,80.1,74.4,68.4,74.5,69.9,66.0,93,86,75,30.04,30.00,2,0,7,0.01
2013-8-8,83.0,77.1,73.2,74.9,71.8,68.4,90,84,75,30.02,29.97,2,0,9,0.00
2013-8-9,89.0,81.5,76.0,78.0,74.9,70.8,92,81,67,29.97,29.83,6,1,14,0.13
2013-8-10,85.7,78.1,70.6,76.4,72.0,66.5,92,82,63,30.01,29.90,1,0,14,0.08
2013-8-11,81.4,74.1,65.8,73.4,68.9,62.8,92,84,73,30.05,29.97,5,1,8,0.00
2013-8-12,84.9,77.8,70.9,78.4,73.4,68.1,93,86,77,29.97,29.87,4,0,7,0.00
2013-8-13,84.0,78.8,72.0,78.2,73.5,68.6,92,84,69,29.86,29.69,6,1,14,0.00
2013-8-14,74.7,69.2,57.3,70.6,59.4,49.4,89,72,55,30.01,29.68,6,1,13,0.02
2013-8-15,74.9,63.9,54.2,64.5,56.3,49.2,89,77,61,30.09,30.00,3,0,6,0.00
2013-8-16,77.7,65.0,52.6,66.1,57.3,49.1,91,77,62,30.11,30.04,8,1,10,0.00
2013-8-17,78.1,70.5,62.6,69.1,64.2,58.0,88,81,73,30.16,30.08,7,1,13,0.02
2013-8-18,73.3,68.8,64.0,70.8,66.1,62.2,94,91,85,30.12,30.05,8,1,11,0.59
2013-8-19,72.7,67.6,62.0,69.4,65.2,60.3,95,92,88,30.11,30.02,1,0,3,0.01
2013-8-20,80.3,72.8,65.8,73.7,68.7,62.9,94,87,77,30.11,30.03,2,0,5,0.00
2013-8-21,83.2,73.7,65.3,76.7,69.3,62.3,94,87,75,30.15,30.05,3,0,5,0.00
2013-8-22,85.5,77.6,69.9,78.7,72.4,67.5,92,84,69,30.05,29.89,2,0,4,0.49
2013-8-23,83.4,72.9,67.3,75.6,68.9,64.6,92,88,74,30.01,29.85,3,0,7,0.37
2013-8-24,79.6,69.7,59.5,71.9,64.2,56.5,94,83,68,30.25,30.01,8,2,15,0.00
2013-8-25,77.7,65.7,54.2,66.7,57.2,49.8,92,75,54,30.32,30.23,7,1,15,0.00
2013-8-26,81.2,67.7,52.0,67.3,57.9,48.3,92,72,51,30.25,29.99,1,0,8,0.00
2013-8-27,85.3,76.3,68.3,71.7,67.0,60.1,85,73,63,29.98,29.84,3,0,10,0.00
2013-8-28,80.7,75.3,70.4,75.9,70.9,65.9,92,86,79,29.86,29.77,2,0,5,0.35
2013-8-29,81.6,73.6,64.3,75.6,69.2,60.7,94,86,76,29.95,29.74,6,1,13,0.01
2013-8-30,79.4,70.7,61.3,72.5,66.0,58.6,93,85,78,29.99,29.89,1,0,6,0.00
2013-8-31,84.9,76.5,68.9,75.2,70.6,65.4,92,82,70,29.89,29.80,3,0,8,0.00
2013-9-1,84.9,79.1,74.0,78.4,73.9,70.1,90,84,77,29.82,29.72,3,0,8,0.00
2013-9-2,83.8,76.5,71.6,75.8,71.7,68.2,91,85,76,29.76,29.69,2,0,8,0.00
2013-9-3,85.9,77.0,65.8,77.8,71.0,60.8,92,82,69,29.84,29.69,1,0,6,0.00
2013-9-4,79.0,69.1,60.2,65.9,60.2,54.7,87,74,57,30.00,29.84,3,0,9,0.00
2013-9-5,84.9,71.8,60.4,70.6,61.8,55.2,91,73,45,30.00,29.92,2,0,8,0.00
2013-9-6,77.2,66.8,55.1,64.7,56.5,48.7,81,71,54,30.13,30.01,8,1,11,0.00
2013-9-7,78.5,65.0,52.3,64.4,55.8,48.5,92,74,47,30.06,29.89,1,0,9,0.00
2013-9-8,84.5,72.3,61.3,69.2,62.0,54.7,87,72,49,29.94,29.81,2,0,5,0.00
2013-9-9,78.3,71.0,61.0,70.5,65.3,56.5,89,82,76,30.11,29.94,9,2,13,0.00
2013-9-10,87.6,76.6,69.8,74.4,69.6,66.5,91,80,62,30.15,30.07,3,0,9,0.00
2013-9-11,78.6,74.1,71.5,69.6,67.9,66.3,86,81,74,30.11,30.01,0,0,3,0.00
2013-9-12,88.0,78.0,69.1,73.3,69.8,64.3,87,77,55,29.99,29.69,7,0,7,0.74
2013-9-13,71.1,67.6,60.4,68.1,62.7,52.7,91,85,66,29.79,29.62,0,0,7,0.12
2013-9-14,70.4,61.4,50.8,57.7,52.2,44.5,85,73,53,30.08,29.80,2,0,5,0.00
2013-9-15,72.1,61.0,47.1,60.9,52.8,43.6,92,75,60,30.17,30.06,3,0,6,0.00
2013-9-16,78.1,67.6,55.7,69.7,61.5,51.9,88,81,71,30.12,29.99,3,0,5,0.00
2013-9-17,68.6,58.4,47.1,59.1,51.4,40.9,89,78,63,30.29,30.12,6,1,12,0.00
2013-9-18,69.8,57.9,47.0,58.2,49.1,41.2,87,73,56,30.26,30.14,5,1,12,0.00
2013-9-19,72.8,59.1,47.7,59.2,49.7,42.8,86,72,58,30.14,30.03,4,0,9,0.00
2013-9-20,74.6,60.0,47.4,63.5,52.2,43.1,92,76,60,30.04,29.94,5,1,9,0.00
2013-9-21,77.2,65.5,49.9,68.3,60.0,45.9,92,83,71,29.94,29.66,6,1,11,0.40
2013-9-22,76.0,67.6,53.9,67.2,62.3,48.9,93,84,64,29.83,29.65,6,0,9,0.26
2013-9-23,66.3,56.0,45.2,52.3,47.3,38.7,89,74,56,30.00,29.83,3,0,6,0.00
2013-9-24,68.6,54.2,42.8,55.7,46.2,38.9,89,75,56,30.01,29.88,2,0,9,0.00
2013-9-25,74.4,60.0,47.6,62.1,51.1,42.3,91,74,49,29.89,29.80,2,0,4,0.00
2013-9-26,74.0,63.1,55.7,65.1,56.5,51.5,90,80,64,29.98,29.82,7,1,11,0.00
2013-9-27,72.5,61.0,52.6,62.2,53.5,48.8,91,77,57,30.14,29.98,5,1,13,0.00
2013-9-28,71.8,61.2,52.3,61.5,54.5,47.8,87,79,65,30.18,30.11,4,0,10,0.00
2013-9-29,73.3,61.6,50.4,64.3,54.7,44.2,91,79,63,30.11,29.97,6,1,18,0.00
2013-9-30,75.1,59.0,46.5,61.8,51.7,43.0,90,78,59,29.99,29.91,4,0,18,0.00
2013-10-1,78.3,63.1,49.2,63.6,54.4,44.8,91,75,55,30.01,29.92,3,0,9,0.00
2013-10-2,82.0,68.9,57.0,68.9,59.9,53.3,91,75,51,30.01,29.95,1,0,5,0.00
2013-10-3,83.4,69.6,56.5,71.8,61.5,52.8,92,76,56,30.04,29.99,3,0,5,0.00
2013-10-4,84.0,72.0,63.7,71.2,63.7,58.5,90,76,53,30.02,29.95,1,0,3,0.00
2013-10-5,86.7,73.4,61.5,72.8,63.9,57.9,91,74,49,30.02,29.96,1,0,3,0.00
2013-10-6,85.3,74.1,66.6,71.4,66.4,62.6,88,78,60,30.00,29.93,3,0,7,0.00
2013-10-7,80.1,71.9,60.5,72.8,67.6,57.6,91,86,77,29.95,29.78,5,1,7,0.73
2013-10-8,62.6,59.7,56.5,57.6,53.3,49.7,90,79,71,30.15,29.95,2,0,6,0.00
2013-10-9,63.1,61.0,57.8,59.6,56.7,51.7,94,86,78,30.14,29.97,4,1,10,1.46
2013-10-10,69.3,66.9,61.5,68.1,65.4,59.8,96,95,94,29.96,29.76,4,1,17,0.55
2013-10-11,73.9,69.0,66.8,72.7,67.8,65.4,96,96,95,29.84,29.73,5,0,9,0.44
2013-10-12,70.1,67.0,64.5,68.7,65.8,63.3,96,96,95,30.00,29.82,4,0,9,0.04
2013-10-13,68.1,65.5,62.6,66.9,64.1,60.8,97,95,94,30.17,29.98,4,1,13,0.18
2013-10-14,69.4,62.9,55.3,65.9,60.0,53.0,95,90,81,30.19,30.13,4,0,15,0.00
2013-10-15,68.6,61.3,54.4,65.0,58.7,52.4,95,91,85,30.13,29.99,4,0,15,0.00
2013-10-16,71.3,64.6,60.2,67.2,61.7,58.2,94,90,84,29.98,29.87,4,0,10,0.00
2013-10-17,74.2,66.5,61.0,68.9,63.5,58.4,94,90,83,29.87,29.73,3,0,6,0.02
2013-10-18,69.1,60.7,47.6,65.8,52.0,42.4,90,74,56,29.96,29.73,5,1,10,0.00
2013-10-19,65.3,58.9,47.6,62.0,55.0,42.8,92,87,82,29.94,29.74,2,0,4,0.03
2013-10-20,63.5,55.1,41.5,60.8,46.5,34.9,92,74,53,30.05,29.76,5,1,9,0.00
2013-10-21,65.3,51.2,39.2,52.8,43.2,35.1,90,75,56,30.09,29.93,5,0,10,0.00
2013-10-22,67.9,57.1,49.5,58.8,51.5,44.2,88,82,68,29.92,29.73,2,0,9,0.00
2013-10-23,55.9,52.2,49.1,51.6,46.2,41.7,87,80,73,29.79,29.55,3,0,7,0.04
2013-10-24,55.6,49.1,37.8,42.2,37.3,29.6,75,64,52,30.05,29.80,4,1,9,0.00
2013-10-25,54.7,43.5,35.3,41.2,34.2,28.4,82,70,53,30.25,30.05,5,1,9,0.00
2013-10-26,59.6,45.0,30.6,44.7,33.7,25.8,87,66,47,30.24,29.92,6,1,15,0.00
2013-10-27,62.1,51.4,39.3,44.2,37.7,32.0,78,60,44,30.08,29.89,4,0,15,0.00
2013-10-28,67.1,50.8,38.2,55.3,43.5,32.5,89,77,58,30.18,30.06,2,0,4,0.00
2013-10-29,67.9,53.3,42.1,57.6,46.7,38.0,91,79,62,30.27,30.17,4,0,10,0.00
2013-10-30,65.3,57.3,47.3,57.4,51.7,42.7,92,82,72,30.25,30.10,1,0,6,0.00
2013-10-31,73.0,65.0,56.7,62.9,58.7,52.8,88,80,65,30.12,29.86,2,0,6,0.00
2013-11-1,72.8,68.7,66.8,65.5,63.6,61.3,90,84,77,29.84,29.59,5,1,14,0.15
2013-11-2,68.3,63.7,54.7,64.9,59.5,46.9,93,86,71,29.79,29.54,5,1,8,0.28
2013-11-3,57.3,51.0,38.5,47.2,40.5,28.1,76,67,54,30.31,29.78,5,2,10,0.00
2013-11-4,52.2,42.7,32.8,38.9,32.1,24.4,75,66,55,30.51,30.31,3,0,9,0.00
2013-11-5,63.7,51.4,40.1,53.1,43.8,34.1,87,76,63,30.48,30.37,9,2,13,0.00
2013-11-6,65.3,55.7,41.9,59.0,50.0,38.0,90,81,67,30.38,30.04,9,2,13,0.00
2013-11-7,64.0,59.2,47.0,61.9,55.8,39.9,93,89,76,30.03,29.75,7,1,11,0.24
2013-11-8,52.5,44.5,31.5,39.9,32.6,23.9,79,63,49,30.23,29.94,8,2,13,0.00
2013-11-9,55.7,42.0,29.3,39.7,32.1,24.0,85,69,49,30.29,30.01,2,0,10,0.01
2013-11-10,66.3,53.6,46.2,45.5,38.5,30.5,71,57,43,30.13,29.86,9,2,12,0.00
2013-11-11,56.2,47.9,41.5,40.1,34.4,29.9,75,60,49,30.23,30.02,4,1,6,0.00
2013-11-12,53.9,43.8,35.8,42.6,31.9,17.0,76,63,46,30.27,29.88,8,3,13,0.00
2013-11-13,42.2,34.4,27.0,24.0,19.9,15.1,70,56,44,30.37,30.27,7,2,13,0.00
2013-11-14,57.3,40.2,25.4,34.3,24.9,18.3,78,57,33,30.33,30.21,5,0,10,0.00
2013-11-15,57.8,48.9,37.3,45.1,33.0,26.0,68,55,35,30.23,30.15,6,1,12,0.00
2013-11-16,62.7,55.8,47.7,53.3,48.2,43.1,86,76,61,30.24,30.14,8,1,10,0.00
2013-11-17,66.9,56.5,47.1,62.1,53.4,43.4,93,89,84,30.15,29.78,3,0,7,0.00
2013-11-18,67.3,60.1,47.4,64.7,53.8,39.2,94,81,61,29.79,29.65,6,1,12,0.04
2013-11-19,50.8,46.0,37.8,39.1,31.7,26.4,65,58,49,30.26,29.80,8,3,11,0.00
2013-11-20,50.7,39.9,34.0,38.1,30.0,24.2,81,68,61,30.44,30.25,4,1,16,0.00
2013-11-21,58.3,45.8,32.5,50.2,40.4,27.3,87,81,74,30.43,30.32,9,2,13,0.00
2013-11-22,63.7,55.6,40.1,58.4,51.3,36.2,90,85,78,30.31,29.91,5,1,13,0.09
2013-11-23,60.9,47.4,33.1,57.6,39.3,24.4,89,74,53,30.02,29.91,9,3,17,0.01
2013-11-24,38.6,30.6,27.3,25.5,11.6,7.5,60,45,37,30.43,30.03,14,8,21,0.00
2013-11-25,37.2,29.7,23.3,22.5,15.5,10.4,61,55,47,30.52,30.31,4,1,13,0.00
2013-11-26,59.9,45.5,36.0,57.6,36.4,21.8,92,71,53,30.32,29.54,10,3,19,0.75
2013-11-27,63.7,46.2,34.4,61.3,43.1,24.1,93,89,65,29.92,29.34,12,7,22,0.93
2013-11-28,37.5,31.6,23.8,25.0,20.9,17.0,77,65,56,30.43,29.94,10,4,18,0.00
2013-11-29,44.2,32.3,22.9,33.5,23.0,17.1,84,69,52,30.62,30.39,6,1,11,0.00
2013-11-30,47.1,33.3,29.5,35.7,23.8,20.2,71,68,64,30.60,30.53,5,2,7,0.00
2013-12-1,50.5,37.8,28.1,40.3,31.4,22.8,86,78,66,30.18,29.95,1,0,5,0.00
2013-12-2,53.8,38.1,27.0,44.8,32.4,23.0,89,80,69,29.95,29.76,6,1,9,0.00
2013-12-3,56.5,42.5,29.4,47.4,35.6,25.4,89,77,61,29.94,29.77,3,0,6,0.00
2013-12-4,58.9,51.5,39.8,53.9,47.0,34.8,90,84,78,30.03,29.94,5,1,9,0.00
2013-12-5,63.1,55.9,47.3,60.4,53.5,44.5,93,92,90,30.06,29.93,3,1,7,0.02
2013-12-6,71.6,59.9,48.6,66.5,56.8,46.4,92,89,81,29.98,29.89,7,2,12,0.01
2013-12-7,47.7,39.7,32.4,45.5,36.6,28.1,93,89,80,30.43,29.97,8,4,12,0.41
2013-12-8,43.5,34.6,32.1,41.9,31.2,27.2,94,87,80,30.45,30.14,6,2,8,0.58
2013-12-9,43.3,40.0,37.9,42.0,38.5,36.3,95,94,93,30.12,29.96,5,1,8,0.57
2013-12-10,40.6,36.8,30.0,39.3,35.3,27.9,95,94,92,30.17,29.83,7,1,10,0.34
2013-12-11,44.2,33.0,24.8,38.9,29.8,23.1,95,88,76,30.34,30.17,2,0,7,0.00
2013-12-12,33.7,28.6,20.3,29.3,21.8,14.5,91,76,61,30.31,30.14,9,3,12,0.00
2013-12-13,43.8,31.5,19.9,31.1,23.1,14.7,81,71,56,30.25,30.17,6,1,11,0.00
2013-12-14,58.4,43.9,30.3,56.1,38.9,23.6,92,82,73,30.27,29.59,12,3,17,1.07
2013-12-15,58.3,41.2,28.5,55.7,38.5,25.7,93,90,84,29.90,29.55,8,2,9,0.06
2013-12-16,43.5,35.2,26.7,36.2,30.4,24.2,92,83,71,30.13,29.88,6,1,9,0.00
2013-12-17,56.6,45.3,38.6,45.7,39.0,33.6,86,79,63,30.09,29.82,6,1,10,0.26
2013-12-18,40.8,35.0,27.2,35.7,29.2,21.5,89,79,66,30.17,29.83,7,2,12,0.11
2013-12-19,56.7,45.1,29.3,36.3,30.6,24.5,82,60,41,30.17,30.08,8,2,12,0.00
2013-12-20,62.4,55.8,49.8,53.8,41.9,28.4,79,61,42,30.12,30.00,7,3,15,0.00
2013-12-21,66.8,60.7,51.4,58.5,52.6,43.4,87,75,68,30.05,29.95,7,3,16,0.00
2013-12-22,75.3,64.7,57.8,67.6,60.7,54.2,90,87,74,30.03,29.91,11,3,18,0.06
2013-12-23,69.6,60.4,43.5,66.3,58.0,41.4,94,92,88,30.09,29.88,10,4,21,1.36
2013-12-24,43.2,37.7,28.5,41.3,31.0,15.5,93,77,59,30.35,30.03,11,6,14,0.21
2013-12-25,34.7,27.1,21.0,21.8,16.5,13.6,78,64,57,30.47,30.34,9,2,12,0.01
2013-12-26,44.8,30.5,20.8,33.4,23.4,15.0,85,75,61,30.33,30.14,7,1,8,0.08
2013-12-27,48.5,33.8,22.9,31.9,24.3,17.9,85,69,47,30.37,30.27,3,0,5,0.00
2013-12-28,56.7,43.4,34.4,37.5,30.6,27.0,77,62,39,30.29,30.08,6,1,13,0.00
2013-12-29,60.4,49.0,42.9,57.8,43.5,31.1,91,82,59,30.08,29.45,14,5,21,0.82
2013-12-30,50.5,41.9,36.0,47.0,37.7,28.2,92,85,73,30.08,29.76,6,1,20,0.00
2013-12-31,46.0,36.1,27.2,34.5,27.0,20.9,77,69,63,30.27,30.06,10,2,19,0.00
2014-1-1,47.9,34.9,23.9,36.7,27.6,18.9,83,75,63,30.36,30.08,5,1,19,0.00
2014-1-2,44.1,39.1,34.0,39.0,34.9,29.7,90,85,78,30.08,29.43,4,0,8,0.45